sensor_id;sensor_type;location;lat;lon;timestamp;P1;durP1;ratioP1;P2;durP2;ratioP2
21901;SDS011;11115;46.038;14.612;2023-09-19T00:01:14;2.78;;;1.48;;
21901;SDS011;11115;46.038;14.612;2023-09-19T00:03:49;2.50;;;2.25;;
21901;SDS011;11115;46.038;14.612;2023-09-19T00:06:20;1.45;;;0.95;;
21901;SDS011;11115;46.038;14.612;2023-09-19T00:09:01;1.90;;;1.35;;
21901;SDS011;11115;46.038;14.612;2023-09-19T00:11:54;3.05;;;1.27;;
21901;SDS011;11115;46.038;14.612;2023-09-19T00:14:43;1.15;;;1.00;;
21901;SDS011;11115;46.038;14.612;2023-09-19T00:17:25;5.40;;;1.77;;
21901;SDS011;11115;46.038;14.612;2023-09-19T00:20:09;2.65;;;0.98;;
21901;SDS011;11115;46.038;14.612;2023-09-19T00:22:58;4.43;;;1.60;;
21901;SDS011;11115;46.038;14.612;2023-09-19T00:25:38;3.03;;;1.45;;
21901;SDS011;11115;46.038;14.612;2023-09-19T00:28:11;2.83;;;1.60;;
21901;SDS011;11115;46.038;14.612;2023-09-19T00:30:44;3.38;;;1.63;;
21901;SDS011;11115;46.038;14.612;2023-09-19T00:33:31;3.08;;;1.70;;
21901;SDS011;11115;46.038;14.612;2023-09-19T00:36:06;5.20;;;1.45;;
21901;SDS011;11115;46.038;14.612;2023-09-19T00:38:37;1.67;;;1.30;;
21901;SDS011;11115;46.038;14.612;2023-09-19T00:41:23;3.00;;;1.73;;
21901;SDS011;11115;46.038;14.612;2023-09-19T00:43:55;3.17;;;1.88;;
21901;SDS011;11115;46.038;14.612;2023-09-19T00:46:27;2.05;;;1.58;;
21901;SDS011;11115;46.038;14.612;2023-09-19T00:49:02;2.92;;;1.52;;
21901;SDS011;11115;46.038;14.612;2023-09-19T00:51:36;3.10;;;2.00;;
21901;SDS011;11115;46.038;14.612;2023-09-19T00:54:16;2.45;;;1.98;;
21901;SDS011;11115;46.038;14.612;2023-09-19T00:56:50;3.03;;;1.65;;
21901;SDS011;11115;46.038;14.612;2023-09-19T00:59:27;3.05;;;1.98;;
21901;SDS011;11115;46.038;14.612;2023-09-19T01:01:56;2.53;;;1.83;;
21901;SDS011;11115;46.038;14.612;2023-09-19T01:04:38;2.17;;;1.52;;
21901;SDS011;11115;46.038;14.612;2023-09-19T01:07:11;5.28;;;1.65;;
21901;SDS011;11115;46.038;14.612;2023-09-19T01:09:52;8.00;;;1.70;;
21901;SDS011;11115;46.038;14.612;2023-09-19T01:30:57;4.32;;;1.92;;
21901;SDS011;11115;46.038;14.612;2023-09-19T01:33:55;3.80;;;1.55;;
21901;SDS011;11115;46.038;14.612;2023-09-19T01:36:30;1.92;;;1.20;;
21901;SDS011;11115;46.038;14.612;2023-09-19T01:39:13;2.15;;;1.30;;
21901;SDS011;11115;46.038;14.612;2023-09-19T01:44:36;1.45;;;1.20;;
21901;SDS011;11115;46.038;14.612;2023-09-19T01:47:33;2.50;;;1.40;;
21901;SDS011;11115;46.038;14.612;2023-09-19T01:50:34;2.20;;;1.27;;
21901;SDS011;11115;46.038;14.612;2023-09-19T01:56:34;2.00;;;1.13;;
21901;SDS011;11115;46.038;14.612;2023-09-19T01:59:48;1.23;;;1.10;;
21901;SDS011;11115;46.038;14.612;2023-09-19T02:02:24;4.05;;;1.92;;
21901;SDS011;11115;46.038;14.612;2023-09-19T02:05:01;4.22;;;1.83;;
21901;SDS011;11115;46.038;14.612;2023-09-19T02:07:35;2.47;;;1.27;;
21901;SDS011;11115;46.038;14.612;2023-09-19T02:10:08;4.40;;;1.38;;
21901;SDS011;11115;46.038;14.612;2023-09-19T02:12:41;2.25;;;1.38;;
21901;SDS011;11115;46.038;14.612;2023-09-19T02:15:30;3.00;;;1.80;;
21901;SDS011;11115;46.038;14.612;2023-09-19T02:18:04;1.60;;;1.25;;
21901;SDS011;11115;46.038;14.612;2023-09-19T02:20:35;1.67;;;1.42;;
21901;SDS011;11115;46.038;14.612;2023-09-19T02:23:14;2.65;;;1.33;;
21901;SDS011;11115;46.038;14.612;2023-09-19T02:25:51;2.10;;;1.60;;
21901;SDS011;11115;46.038;14.612;2023-09-19T02:28:36;6.20;;;1.70;;
21901;SDS011;11115;46.038;14.612;2023-09-19T02:31:09;2.80;;;0.95;;
21901;SDS011;11115;46.038;14.612;2023-09-19T02:33:41;6.50;;;1.27;;
21901;SDS011;11115;46.038;14.612;2023-09-19T02:36:17;1.55;;;1.10;;
21901;SDS011;11115;46.038;14.612;2023-09-19T02:38:45;2.63;;;1.55;;
21901;SDS011;11115;46.038;14.612;2023-09-19T02:41:29;2.38;;;1.52;;
21901;SDS011;11115;46.038;14.612;2023-09-19T02:44:01;4.18;;;1.88;;
21901;SDS011;11115;46.038;14.612;2023-09-19T02:46:37;1.73;;;1.10;;
21901;SDS011;11115;46.038;14.612;2023-09-19T02:49:09;2.25;;;1.20;;
21901;SDS011;11115;46.038;14.612;2023-09-19T02:51:43;2.30;;;1.65;;
21901;SDS011;11115;46.038;14.612;2023-09-19T02:54:22;2.85;;;1.30;;
21901;SDS011;11115;46.038;14.612;2023-09-19T02:56:56;2.38;;;1.17;;
21901;SDS011;11115;46.038;14.612;2023-09-19T02:59:38;3.97;;;1.40;;
21901;SDS011;11115;46.038;14.612;2023-09-19T03:02:30;2.72;;;2.03;;
21901;SDS011;11115;46.038;14.612;2023-09-19T03:05:05;4.03;;;1.88;;
21901;SDS011;11115;46.038;14.612;2023-09-19T03:07:39;2.13;;;1.88;;
21901;SDS011;11115;46.038;14.612;2023-09-19T03:10:15;2.42;;;1.73;;
21901;SDS011;11115;46.038;14.612;2023-09-19T03:12:50;4.28;;;2.15;;
21901;SDS011;11115;46.038;14.612;2023-09-19T03:15:26;7.78;;;2.33;;
21901;SDS011;11115;46.038;14.612;2023-09-19T03:17:58;3.97;;;2.20;;
21901;SDS011;11115;46.038;14.612;2023-09-19T03:20:32;3.30;;;1.73;;
21901;SDS011;11115;46.038;14.612;2023-09-19T03:23:22;2.40;;;1.55;;
21901;SDS011;11115;46.038;14.612;2023-09-19T03:25:56;1.75;;;1.17;;
21901;SDS011;11115;46.038;14.612;2023-09-19T03:28:28;2.25;;;1.35;;
21901;SDS011;11115;46.038;14.612;2023-09-19T03:31:03;2.40;;;1.60;;
21901;SDS011;11115;46.038;14.612;2023-09-19T03:33:37;2.22;;;1.50;;
21901;SDS011;11115;46.038;14.612;2023-09-19T03:36:32;1.65;;;1.05;;
21901;SDS011;11115;46.038;14.612;2023-09-19T03:39:04;1.67;;;1.17;;
21901;SDS011;11115;46.038;14.612;2023-09-19T03:41:41;7.97;;;2.22;;
21901;SDS011;11115;46.038;14.612;2023-09-19T03:44:12;2.58;;;1.42;;
21901;SDS011;11115;46.038;14.612;2023-09-19T03:46:46;7.13;;;2.03;;
21901;SDS011;11115;46.038;14.612;2023-09-19T03:49:34;3.65;;;1.83;;
21901;SDS011;11115;46.038;14.612;2023-09-19T03:52:06;4.35;;;1.90;;
21901;SDS011;11115;46.038;14.612;2023-09-19T03:54:48;2.05;;;1.65;;
21901;SDS011;11115;46.038;14.612;2023-09-19T03:57:22;3.25;;;1.90;;
21901;SDS011;11115;46.038;14.612;2023-09-19T04:00:10;6.00;;;3.10;;
21901;SDS011;11115;46.038;14.612;2023-09-19T04:02:51;3.65;;;1.65;;
21901;SDS011;11115;46.038;14.612;2023-09-19T04:05:21;4.70;;;2.13;;
21901;SDS011;11115;46.038;14.612;2023-09-19T04:07:51;2.15;;;1.65;;
21901;SDS011;11115;46.038;14.612;2023-09-19T04:13:03;2.92;;;1.13;;
21901;SDS011;11115;46.038;14.612;2023-09-19T04:15:52;2.50;;;1.45;;
21901;SDS011;11115;46.038;14.612;2023-09-19T04:18:29;7.78;;;1.17;;
21901;SDS011;11115;46.038;14.612;2023-09-19T04:21:20;2.20;;;1.10;;
21901;SDS011;11115;46.038;14.612;2023-09-19T04:23:57;0.90;;;0.70;;
21901;SDS011;11115;46.038;14.612;2023-09-19T04:26:36;2.17;;;1.20;;
21901;SDS011;11115;46.038;14.612;2023-09-19T04:29:11;2.10;;;0.70;;
21901;SDS011;11115;46.038;14.612;2023-09-19T04:31:41;2.65;;;1.23;;
21901;SDS011;11115;46.038;14.612;2023-09-19T04:34:13;1.20;;;0.70;;
21901;SDS011;11115;46.038;14.612;2023-09-19T04:36:44;3.83;;;0.50;;
21901;SDS011;11115;46.038;14.612;2023-09-19T04:39:16;0.70;;;0.70;;
21901;SDS011;11115;46.038;14.612;2023-09-19T04:41:48;1.67;;;1.33;;
21901;SDS011;11115;46.038;14.612;2023-09-19T04:44:23;0.40;;;0.35;;
21901;SDS011;11115;46.038;14.612;2023-09-19T04:47:01;3.22;;;0.57;;
21901;SDS011;11115;46.038;14.612;2023-09-19T04:49:45;1.70;;;0.88;;
21901;SDS011;11115;46.038;14.612;2023-09-19T04:52:17;0.68;;;0.60;;
21901;SDS011;11115;46.038;14.612;2023-09-19T04:54:54;1.00;;;0.60;;
21901;SDS011;11115;46.038;14.612;2023-09-19T04:57:35;1.30;;;0.90;;
21901;SDS011;11115;46.038;14.612;2023-09-19T05:00:19;3.45;;;0.70;;
21901;SDS011;11115;46.038;14.612;2023-09-19T05:02:52;0.52;;;0.47;;
21901;SDS011;11115;46.038;14.612;2023-09-19T05:08:03;0.82;;;0.57;;
21901;SDS011;11115;46.038;14.612;2023-09-19T05:10:42;1.08;;;0.70;;
21901;SDS011;11115;46.038;14.612;2023-09-19T05:13:14;0.38;;;0.30;;
21901;SDS011;11115;46.038;14.612;2023-09-19T05:16:01;0.63;;;0.45;;
21901;SDS011;11115;46.038;14.612;2023-09-19T05:18:34;0.73;;;0.68;;
21901;SDS011;11115;46.038;14.612;2023-09-19T05:21:11;0.47;;;0.20;;
21901;SDS011;11115;46.038;14.612;2023-09-19T05:23:55;0.60;;;0.32;;
21901;SDS011;11115;46.038;14.612;2023-09-19T05:26:54;0.00;;;0.00;;
21901;SDS011;11115;46.038;14.612;2023-09-19T05:29:27;0.27;;;0.13;;
21901;SDS011;11115;46.038;14.612;2023-09-19T05:32:04;1.23;;;0.50;;
21901;SDS011;11115;46.038;14.612;2023-09-19T05:34:40;0.30;;;0.15;;
21901;SDS011;11115;46.038;14.612;2023-09-19T05:37:22;1.00;;;0.20;;
21901;SDS011;11115;46.038;14.612;2023-09-19T05:39:57;0.25;;;0.20;;
21901;SDS011;11115;46.038;14.612;2023-09-19T05:42:36;0.15;;;0.15;;
21901;SDS011;11115;46.038;14.612;2023-09-19T05:45:09;0.20;;;0.20;;
21901;SDS011;11115;46.038;14.612;2023-09-19T05:47:45;0.45;;;0.20;;
21901;SDS011;11115;46.038;14.612;2023-09-19T05:50:45;0.40;;;0.20;;
21901;SDS011;11115;46.038;14.612;2023-09-19T05:53:32;0.90;;;0.43;;
21901;SDS011;11115;46.038;14.612;2023-09-19T05:56:06;0.63;;;0.57;;
21901;SDS011;11115;46.038;14.612;2023-09-19T05:58:49;1.65;;;0.20;;
21901;SDS011;11115;46.038;14.612;2023-09-19T06:01:21;0.13;;;0.13;;
21901;SDS011;11115;46.038;14.612;2023-09-19T06:03:54;1.10;;;0.20;;
21901;SDS011;11115;46.038;14.612;2023-09-19T06:06:29;0.65;;;0.20;;
21901;SDS011;11115;46.038;14.612;2023-09-19T06:08:59;0.65;;;0.32;;
21901;SDS011;11115;46.038;14.612;2023-09-19T06:11:29;0.63;;;0.40;;
21901;SDS011;11115;46.038;14.612;2023-09-19T06:14:05;1.75;;;1.10;;
21901;SDS011;11115;46.038;14.612;2023-09-19T06:16:33;0.88;;;0.57;;
21901;SDS011;11115;46.038;14.612;2023-09-19T06:19:05;0.40;;;0.30;;
21901;SDS011;11115;46.038;14.612;2023-09-19T06:21:44;0.70;;;0.68;;
21901;SDS011;11115;46.038;14.612;2023-09-19T06:24:21;1.10;;;0.68;;
21901;SDS011;11115;46.038;14.612;2023-09-19T06:26:53;0.30;;;0.20;;
21901;SDS011;11115;46.038;14.612;2023-09-19T06:29:25;0.52;;;0.20;;
21901;SDS011;11115;46.038;14.612;2023-09-19T06:32:09;0.15;;;0.10;;
21901;SDS011;11115;46.038;14.612;2023-09-19T06:34:40;0.90;;;0.20;;
21901;SDS011;11115;46.038;14.612;2023-09-19T06:37:21;0.70;;;0.10;;
21901;SDS011;11115;46.038;14.612;2023-09-19T06:40:01;0.05;;;0.00;;
21901;SDS011;11115;46.038;14.612;2023-09-19T06:42:32;0.20;;;0.20;;
21901;SDS011;11115;46.038;14.612;2023-09-19T06:45:15;0.20;;;0.20;;
21901;SDS011;11115;46.038;14.612;2023-09-19T06:48:18;0.10;;;0.10;;
21901;SDS011;11115;46.038;14.612;2023-09-19T06:50:51;0.63;;;0.13;;
21901;SDS011;11115;46.038;14.612;2023-09-19T06:53:24;0.43;;;0.00;;
21901;SDS011;11115;46.038;14.612;2023-09-19T06:55:53;0.00;;;0.00;;
21901;SDS011;11115;46.038;14.612;2023-09-19T06:58:33;0.65;;;0.45;;
21901;SDS011;11115;46.038;14.612;2023-09-19T07:01:06;0.40;;;0.20;;
21901;SDS011;11115;46.038;14.612;2023-09-19T07:03:43;0.65;;;0.47;;
21901;SDS011;11115;46.038;14.612;2023-09-19T07:06:16;0.10;;;0.10;;
21901;SDS011;11115;46.038;14.612;2023-09-19T07:08:46;0.00;;;0.00;;
21901;SDS011;11115;46.038;14.612;2023-09-19T07:11:17;0.10;;;0.10;;
21901;SDS011;11115;46.038;14.612;2023-09-19T07:14:12;0.57;;;0.30;;
21901;SDS011;11115;46.038;14.612;2023-09-19T07:16:53;0.00;;;0.00;;
21901;SDS011;11115;46.038;14.612;2023-09-19T07:19:34;0.05;;;0.05;;
21901;SDS011;11115;46.038;14.612;2023-09-19T07:22:07;0.00;;;0.00;;
21901;SDS011;11115;46.038;14.612;2023-09-19T07:24:50;1.73;;;0.08;;
21901;SDS011;11115;46.038;14.612;2023-09-19T07:27:24;0.28;;;0.00;;
21901;SDS011;11115;46.038;14.612;2023-09-19T07:29:55;1.27;;;0.10;;
21901;SDS011;11115;46.038;14.612;2023-09-19T07:32:26;0.00;;;0.00;;
21901;SDS011;11115;46.038;14.612;2023-09-19T07:34:58;0.70;;;0.30;;
21901;SDS011;11115;46.038;14.612;2023-09-19T07:37:41;0.00;;;0.00;;
21901;SDS011;11115;46.038;14.612;2023-09-19T07:40:18;0.45;;;0.22;;
21901;SDS011;11115;46.038;14.612;2023-09-19T07:43:04;0.68;;;0.10;;
21901;SDS011;11115;46.038;14.612;2023-09-19T07:45:36;0.32;;;0.03;;
21901;SDS011;11115;46.038;14.612;2023-09-19T07:48:07;0.10;;;0.05;;
21901;SDS011;11115;46.038;14.612;2023-09-19T07:50:41;0.13;;;0.13;;
21901;SDS011;11115;46.038;14.612;2023-09-19T07:53:15;0.05;;;0.05;;
21901;SDS011;11115;46.038;14.612;2023-09-19T07:56:05;0.10;;;0.10;;
21901;SDS011;11115;46.038;14.612;2023-09-19T07:58:35;0.22;;;0.13;;
21901;SDS011;11115;46.038;14.612;2023-09-19T08:01:10;0.98;;;0.20;;
21901;SDS011;11115;46.038;14.612;2023-09-19T08:03:44;0.15;;;0.05;;
21901;SDS011;11115;46.038;14.612;2023-09-19T08:06:19;0.17;;;0.00;;
21901;SDS011;11115;46.038;14.612;2023-09-19T08:08:52;0.38;;;0.20;;
21901;SDS011;11115;46.038;14.612;2023-09-19T08:11:32;0.10;;;0.10;;
21901;SDS011;11115;46.038;14.612;2023-09-19T08:14:15;0.75;;;0.32;;
21901;SDS011;11115;46.038;14.612;2023-09-19T08:17:00;0.15;;;0.10;;
21901;SDS011;11115;46.038;14.612;2023-09-19T08:19:34;0.50;;;0.30;;
21901;SDS011;11115;46.038;14.612;2023-09-19T08:22:13;1.35;;;0.30;;
21901;SDS011;11115;46.038;14.612;2023-09-19T08:24:50;0.45;;;0.13;;
21901;SDS011;11115;46.038;14.612;2023-09-19T08:27:32;2.08;;;0.30;;
21901;SDS011;11115;46.038;14.612;2023-09-19T08:30:04;0.52;;;0.20;;
21901;SDS011;11115;46.038;14.612;2023-09-19T08:32:56;0.90;;;0.38;;
21901;SDS011;11115;46.038;14.612;2023-09-19T08:35:32;0.20;;;0.20;;
21901;SDS011;11115;46.038;14.612;2023-09-19T08:38:07;0.13;;;0.13;;
21901;SDS011;11115;46.038;14.612;2023-09-19T08:40:48;0.43;;;0.30;;
21901;SDS011;11115;46.038;14.612;2023-09-19T08:43:25;0.55;;;0.40;;
21901;SDS011;11115;46.038;14.612;2023-09-19T08:46:14;0.47;;;0.15;;
21901;SDS011;11115;46.038;14.612;2023-09-19T08:48:58;0.38;;;0.28;;
21901;SDS011;11115;46.038;14.612;2023-09-19T08:51:45;0.32;;;0.22;;
21901;SDS011;11115;46.038;14.612;2023-09-19T08:54:22;1.38;;;0.40;;
21901;SDS011;11115;46.038;14.612;2023-09-19T08:57:04;0.30;;;0.30;;
21901;SDS011;11115;46.038;14.612;2023-09-19T08:59:52;0.55;;;0.30;;
21901;SDS011;11115;46.038;14.612;2023-09-19T09:02:22;0.93;;;0.30;;
21901;SDS011;11115;46.038;14.612;2023-09-19T09:04:56;0.30;;;0.28;;
21901;SDS011;11115;46.038;14.612;2023-09-19T09:07:29;0.30;;;0.30;;
21901;SDS011;11115;46.038;14.612;2023-09-19T09:10:00;1.90;;;0.70;;
21901;SDS011;11115;46.038;14.612;2023-09-19T09:12:39;0.98;;;0.65;;
21901;SDS011;11115;46.038;14.612;2023-09-19T09:15:10;2.17;;;1.02;;
21901;SDS011;11115;46.038;14.612;2023-09-19T09:17:47;1.63;;;1.05;;
21901;SDS011;11115;46.038;14.612;2023-09-19T09:20:21;0.85;;;0.40;;
21901;SDS011;11115;46.038;14.612;2023-09-19T09:23:01;0.50;;;0.40;;
21901;SDS011;11115;46.038;14.612;2023-09-19T09:25:49;1.13;;;0.50;;
21901;SDS011;11115;46.038;14.612;2023-09-19T09:28:27;0.32;;;0.32;;
21901;SDS011;11115;46.038;14.612;2023-09-19T09:30:58;0.90;;;0.43;;
21901;SDS011;11115;46.038;14.612;2023-09-19T09:33:31;2.50;;;0.60;;
21901;SDS011;11115;46.038;14.612;2023-09-19T09:36:11;1.73;;;0.90;;
21901;SDS011;11115;46.038;14.612;2023-09-19T09:38:45;0.52;;;0.52;;
21901;SDS011;11115;46.038;14.612;2023-09-19T09:41:35;0.85;;;0.60;;
21901;SDS011;11115;46.038;14.612;2023-09-19T09:44:16;0.93;;;0.88;;
21901;SDS011;11115;46.038;14.612;2023-09-19T09:46:50;0.40;;;0.40;;
21901;SDS011;11115;46.038;14.612;2023-09-19T09:49:30;0.43;;;0.43;;
21901;SDS011;11115;46.038;14.612;2023-09-19T09:52:08;1.25;;;0.73;;
21901;SDS011;11115;46.038;14.612;2023-09-19T09:54:58;1.08;;;0.25;;
21901;SDS011;11115;46.038;14.612;2023-09-19T09:57:43;0.80;;;0.43;;
21901;SDS011;11115;46.038;14.612;2023-09-19T10:00:14;0.75;;;0.40;;
21901;SDS011;11115;46.038;14.612;2023-09-19T10:02:49;0.22;;;0.22;;
21901;SDS011;11115;46.038;14.612;2023-09-19T10:05:25;0.70;;;0.47;;
21901;SDS011;11115;46.038;14.612;2023-09-19T10:07:58;0.73;;;0.70;;
21901;SDS011;11115;46.038;14.612;2023-09-19T10:10:50;0.57;;;0.40;;
21901;SDS011;11115;46.038;14.612;2023-09-19T10:13:33;1.65;;;0.63;;
21901;SDS011;11115;46.038;14.612;2023-09-19T10:16:14;0.55;;;0.30;;
21901;SDS011;11115;46.038;14.612;2023-09-19T10:18:46;2.25;;;0.80;;
21901;SDS011;11115;46.038;14.612;2023-09-19T10:21:25;1.63;;;0.52;;
21901;SDS011;11115;46.038;14.612;2023-09-19T10:24:03;0.50;;;0.40;;
21901;SDS011;11115;46.038;14.612;2023-09-19T10:26:38;1.55;;;0.50;;
21901;SDS011;11115;46.038;14.612;2023-09-19T10:29:13;6.28;;;0.82;;
21901;SDS011;11115;46.038;14.612;2023-09-19T10:31:56;1.83;;;0.60;;
21901;SDS011;11115;46.038;14.612;2023-09-19T10:34:41;0.80;;;0.52;;
21901;SDS011;11115;46.038;14.612;2023-09-19T10:37:18;1.50;;;0.95;;
21901;SDS011;11115;46.038;14.612;2023-09-19T10:39:53;1.17;;;0.38;;
21901;SDS011;11115;46.038;14.612;2023-09-19T10:42:37;0.20;;;0.20;;
21901;SDS011;11115;46.038;14.612;2023-09-19T10:45:17;0.63;;;0.30;;
21901;SDS011;11115;46.038;14.612;2023-09-19T10:47:57;0.25;;;0.25;;
21901;SDS011;11115;46.038;14.612;2023-09-19T10:50:33;0.55;;;0.40;;
21901;SDS011;11115;46.038;14.612;2023-09-19T10:53:14;0.82;;;0.40;;
21901;SDS011;11115;46.038;14.612;2023-09-19T10:55:50;0.50;;;0.38;;
21901;SDS011;11115;46.038;14.612;2023-09-19T10:58:27;0.35;;;0.30;;
21901;SDS011;11115;46.038;14.612;2023-09-19T11:01:10;0.75;;;0.68;;
21901;SDS011;11115;46.038;14.612;2023-09-19T11:03:44;0.85;;;0.20;;
21901;SDS011;11115;46.038;14.612;2023-09-19T11:06:16;0.68;;;0.50;;
21901;SDS011;11115;46.038;14.612;2023-09-19T11:09:07;0.43;;;0.20;;
21901;SDS011;11115;46.038;14.612;2023-09-19T11:11:55;0.32;;;0.30;;
21901;SDS011;11115;46.038;14.612;2023-09-19T11:14:37;0.68;;;0.20;;
21901;SDS011;11115;46.038;14.612;2023-09-19T11:17:35;0.55;;;0.30;;
21901;SDS011;11115;46.038;14.612;2023-09-19T11:25:59;0.85;;;0.50;;
21901;SDS011;11115;46.038;14.612;2023-09-19T11:28:32;3.05;;;0.70;;
21901;SDS011;11115;46.038;14.612;2023-09-19T11:34:37;1.08;;;0.50;;
21901;SDS011;11115;46.038;14.612;2023-09-19T11:40:09;0.10;;;0.10;;
21901;SDS011;11115;46.038;14.612;2023-09-19T11:42:56;0.43;;;0.30;;
21901;SDS011;11115;46.038;14.612;2023-09-19T11:51:19;0.20;;;0.20;;
21901;SDS011;11115;46.038;14.612;2023-09-19T11:54:02;1.13;;;0.30;;
21901;SDS011;11115;46.038;14.612;2023-09-19T11:56:38;0.80;;;0.30;;
21901;SDS011;11115;46.038;14.612;2023-09-19T11:59:22;0.38;;;0.17;;
21901;SDS011;11115;46.038;14.612;2023-09-19T12:02:10;0.57;;;0.20;;
21901;SDS011;11115;46.038;14.612;2023-09-19T12:05:06;0.28;;;0.20;;
21901;SDS011;11115;46.038;14.612;2023-09-19T12:07:43;0.47;;;0.40;;
21901;SDS011;11115;46.038;14.612;2023-09-19T12:10:26;1.08;;;0.20;;
21901;SDS011;11115;46.038;14.612;2023-09-19T12:13:04;0.55;;;0.30;;
21901;SDS011;11115;46.038;14.612;2023-09-19T12:15:37;0.52;;;0.45;;
21901;SDS011;11115;46.038;14.612;2023-09-19T12:18:30;0.43;;;0.30;;
21901;SDS011;11115;46.038;14.612;2023-09-19T12:21:07;0.40;;;0.17;;
21901;SDS011;11115;46.038;14.612;2023-09-19T12:23:39;0.90;;;0.20;;
21901;SDS011;11115;46.038;14.612;2023-09-19T12:26:10;5.25;;;1.00;;
21901;SDS011;11115;46.038;14.612;2023-09-19T12:28:43;0.10;;;0.10;;
21901;SDS011;11115;46.038;14.612;2023-09-19T12:31:17;0.80;;;0.43;;
21901;SDS011;11115;46.038;14.612;2023-09-19T12:33:58;0.35;;;0.35;;
21901;SDS011;11115;46.038;14.612;2023-09-19T12:36:34;0.90;;;0.45;;
21901;SDS011;11115;46.038;14.612;2023-09-19T12:39:07;1.35;;;0.57;;
21901;SDS011;11115;46.038;14.612;2023-09-19T12:41:40;0.43;;;0.40;;
21901;SDS011;11115;46.038;14.612;2023-09-19T12:44:25;1.85;;;0.40;;
21901;SDS011;11115;46.038;14.612;2023-09-19T12:47:10;1.23;;;0.68;;
21901;SDS011;11115;46.038;14.612;2023-09-19T12:52:46;0.45;;;0.45;;
21901;SDS011;11115;46.038;14.612;2023-09-19T12:55:26;0.73;;;0.10;;
21901;SDS011;11115;46.038;14.612;2023-09-19T12:58:11;1.50;;;0.32;;
21901;SDS011;11115;46.038;14.612;2023-09-19T13:00:54;1.02;;;0.28;;
21901;SDS011;11115;46.038;14.612;2023-09-19T13:03:32;0.25;;;0.25;;
21901;SDS011;11115;46.038;14.612;2023-09-19T13:06:08;2.40;;;0.38;;
21901;SDS011;11115;46.038;14.612;2023-09-19T13:08:44;1.75;;;0.40;;
21901;SDS011;11115;46.038;14.612;2023-09-19T13:11:35;0.20;;;0.20;;
21901;SDS011;11115;46.038;14.612;2023-09-19T13:14:14;0.73;;;0.40;;
21901;SDS011;11115;46.038;14.612;2023-09-19T13:17:10;0.70;;;0.25;;
21901;SDS011;11115;46.038;14.612;2023-09-19T13:19:49;0.20;;;0.20;;
21901;SDS011;11115;46.038;14.612;2023-09-19T13:22:39;0.50;;;0.50;;
21901;SDS011;11115;46.038;14.612;2023-09-19T13:25:21;0.22;;;0.17;;
21901;SDS011;11115;46.038;14.612;2023-09-19T13:28:04;0.57;;;0.30;;
21901;SDS011;11115;46.038;14.612;2023-09-19T13:30:40;0.85;;;0.30;;
21901;SDS011;11115;46.038;14.612;2023-09-19T13:33:12;0.55;;;0.30;;
21901;SDS011;11115;46.038;14.612;2023-09-19T13:35:50;0.30;;;0.30;;
21901;SDS011;11115;46.038;14.612;2023-09-19T13:38:32;0.10;;;0.10;;
21901;SDS011;11115;46.038;14.612;2023-09-19T13:41:09;0.60;;;0.40;;
21901;SDS011;11115;46.038;14.612;2023-09-19T13:43:48;0.45;;;0.45;;
21901;SDS011;11115;46.038;14.612;2023-09-19T13:46:19;0.22;;;0.13;;
21901;SDS011;11115;46.038;14.612;2023-09-19T13:48:56;0.68;;;0.30;;
21901;SDS011;11115;46.038;14.612;2023-09-19T13:51:36;0.25;;;0.20;;
21901;SDS011;11115;46.038;14.612;2023-09-19T13:54:13;0.28;;;0.22;;
21901;SDS011;11115;46.038;14.612;2023-09-19T13:56:50;0.52;;;0.17;;
21901;SDS011;11115;46.038;14.612;2023-09-19T13:59:23;0.73;;;0.10;;
21901;SDS011;11115;46.038;14.612;2023-09-19T14:01:57;0.10;;;0.10;;
21901;SDS011;11115;46.038;14.612;2023-09-19T14:04:36;0.15;;;0.15;;
21901;SDS011;11115;46.038;14.612;2023-09-19T14:07:09;0.73;;;0.10;;
21901;SDS011;11115;46.038;14.612;2023-09-19T14:09:51;0.20;;;0.20;;
21901;SDS011;11115;46.038;14.612;2023-09-19T14:12:21;1.25;;;0.20;;
21901;SDS011;11115;46.038;14.612;2023-09-19T14:14:58;0.32;;;0.28;;
21901;SDS011;11115;46.038;14.612;2023-09-19T14:17:33;0.70;;;0.38;;
21901;SDS011;11115;46.038;14.612;2023-09-19T14:20:14;0.10;;;0.10;;
21901;SDS011;11115;46.038;14.612;2023-09-19T14:22:44;0.08;;;0.08;;
21901;SDS011;11115;46.038;14.612;2023-09-19T14:25:28;0.55;;;0.20;;
21901;SDS011;11115;46.038;14.612;2023-09-19T14:28:04;0.30;;;0.30;;
21901;SDS011;11115;46.038;14.612;2023-09-19T14:30:44;0.50;;;0.32;;
21901;SDS011;11115;46.038;14.612;2023-09-19T14:33:27;0.38;;;0.10;;
21901;SDS011;11115;46.038;14.612;2023-09-19T14:36:08;0.38;;;0.30;;
21901;SDS011;11115;46.038;14.612;2023-09-19T14:38:51;14.07;;;0.55;;
21901;SDS011;11115;46.038;14.612;2023-09-19T14:41:29;0.45;;;0.30;;
21901;SDS011;11115;46.038;14.612;2023-09-19T14:44:07;0.05;;;0.00;;
21901;SDS011;11115;46.038;14.612;2023-09-19T14:46:40;0.40;;;0.32;;
21901;SDS011;11115;46.038;14.612;2023-09-19T14:49:12;1.08;;;0.30;;
21901;SDS011;11115;46.038;14.612;2023-09-19T14:51:55;2.65;;;0.25;;
21901;SDS011;11115;46.038;14.612;2023-09-19T14:54:27;0.38;;;0.38;;
21901;SDS011;11115;46.038;14.612;2023-09-19T14:57:00;0.20;;;0.13;;
21901;SDS011;11115;46.038;14.612;2023-09-19T14:59:33;0.40;;;0.20;;
21901;SDS011;11115;46.038;14.612;2023-09-19T15:02:06;0.38;;;0.30;;
21901;SDS011;11115;46.038;14.612;2023-09-19T15:04:39;0.17;;;0.17;;
21901;SDS011;11115;46.038;14.612;2023-09-19T15:09:53;0.40;;;0.40;;
21901;SDS011;11115;46.038;14.612;2023-09-19T15:12:33;0.45;;;0.20;;
21901;SDS011;11115;46.038;14.612;2023-09-19T15:15:10;0.00;;;0.00;;
21901;SDS011;11115;46.038;14.612;2023-09-19T15:17:49;0.40;;;0.37;;
21901;SDS011;11115;46.038;14.612;2023-09-19T15:20:27;1.80;;;0.10;;
21901;SDS011;11115;46.038;14.612;2023-09-19T15:22:58;2.20;;;0.90;;
21901;SDS011;11115;46.038;14.612;2023-09-19T15:25:30;0.40;;;0.28;;
21901;SDS011;11115;46.038;14.612;2023-09-19T15:28:09;0.10;;;0.10;;
21901;SDS011;11115;46.038;14.612;2023-09-19T15:30:41;0.50;;;0.20;;
21901;SDS011;11115;46.038;14.612;2023-09-19T15:33:16;0.00;;;0.00;;
21901;SDS011;11115;46.038;14.612;2023-09-19T15:35:51;0.08;;;0.08;;
21901;SDS011;11115;46.038;14.612;2023-09-19T15:38:24;0.45;;;0.22;;
21901;SDS011;11115;46.038;14.612;2023-09-19T15:41:04;0.32;;;0.30;;
21901;SDS011;11115;46.038;14.612;2023-09-19T15:43:41;0.10;;;0.10;;
21901;SDS011;11115;46.038;14.612;2023-09-19T15:46:11;0.15;;;0.15;;
21901;SDS011;11115;46.038;14.612;2023-09-19T15:48:45;0.77;;;0.30;;
21901;SDS011;11115;46.038;14.612;2023-09-19T15:51:19;0.10;;;0.10;;
21901;SDS011;11115;46.038;14.612;2023-09-19T15:53:53;0.43;;;0.43;;
21901;SDS011;11115;46.038;14.612;2023-09-19T15:56:32;0.65;;;0.20;;
21901;SDS011;11115;46.038;14.612;2023-09-19T15:59:04;0.47;;;0.17;;
21901;SDS011;11115;46.038;14.612;2023-09-19T16:01:39;2.35;;;0.52;;
21901;SDS011;11115;46.038;14.612;2023-09-19T16:04:12;4.43;;;0.17;;
21901;SDS011;11115;46.038;14.612;2023-09-19T16:06:51;0.47;;;0.35;;
21901;SDS011;11115;46.038;14.612;2023-09-19T16:09:33;0.32;;;0.20;;
21901;SDS011;11115;46.038;14.612;2023-09-19T16:12:05;0.55;;;0.47;;
21901;SDS011;11115;46.038;14.612;2023-09-19T16:14:51;1.40;;;0.20;;
21901;SDS011;11115;46.038;14.612;2023-09-19T16:17:32;0.10;;;0.10;;
21901;SDS011;11115;46.038;14.612;2023-09-19T16:20:08;0.88;;;0.50;;
21901;SDS011;11115;46.038;14.612;2023-09-19T16:22:45;0.60;;;0.25;;
21901;SDS011;11115;46.038;14.612;2023-09-19T16:25:16;0.73;;;0.60;;
21901;SDS011;11115;46.038;14.612;2023-09-19T16:27:56;2.08;;;0.50;;
21901;SDS011;11115;46.038;14.612;2023-09-19T16:30:27;0.57;;;0.23;;